createdAt,value
2022-10-12T00:03:08.326Z,1016.612
2022-10-12T00:23:08.182Z,1016.698
2022-10-12T00:43:07.963Z,1016.726
2022-10-12T01:03:08.706Z,1016.718
2022-10-12T01:23:07.570Z,1016.726
2022-10-12T01:43:07.347Z,1016.542
2022-10-12T02:03:08.092Z,1016.324
2022-10-12T02:23:07.792Z,1016.186
2022-10-12T02:43:12.191Z,1016.057
2022-10-12T03:03:08.744Z,1015.849
2022-10-12T03:23:07.689Z,1015.865
2022-10-12T03:43:07.519Z,1015.647
2022-10-12T04:03:08.186Z,1015.688
2022-10-12T04:23:07.966Z,1015.517
2022-10-12T04:43:07.992Z,1015.41
2022-10-12T05:03:08.905Z,1015.322
2022-10-12T05:23:07.666Z,1015.195
2022-10-12T05:43:07.567Z,1015.12
2022-10-12T06:03:08.406Z,1015.151
2022-10-12T06:23:07.207Z,1015.174
2022-10-12T06:43:08.076Z,1015.189
2022-10-12T07:03:08.753Z,1015.251
2022-10-12T07:23:07.654Z,1015.264
2022-10-12T07:43:17.283Z,1015.383
2022-10-12T08:03:08.036Z,1015.179
2022-10-12T08:23:07.838Z,1015.303
2022-10-12T08:43:07.671Z,1015.197
2022-10-12T09:03:08.497Z,1015.267
2022-10-12T09:23:07.280Z,1015.14
2022-10-12T09:43:08.289Z,1015.093
2022-10-12T10:03:09.049Z,1015.013
2022-10-12T10:23:07.789Z,1014.863
2022-10-12T10:43:07.721Z,1014.643
2022-10-12T11:03:08.870Z,1014.563
2022-10-12T11:23:08.553Z,1014.575
2022-10-12T11:43:07.731Z,1014.314
2022-10-12T12:03:08.682Z,1014.12
2022-10-12T12:23:07.591Z,1013.964
2022-10-12T12:43:07.640Z,1013.661
2022-10-12T13:03:08.699Z,1013.506
2022-10-12T13:23:07.623Z,1013.408
2022-10-12T13:43:07.629Z,1013.291
2022-10-12T14:03:08.519Z,1013.11
2022-10-12T14:23:07.492Z,1012.778
2022-10-12T14:43:07.539Z,1012.744
2022-10-12T15:03:08.549Z,1012.415
2022-10-12T15:23:07.506Z,1012.286
2022-10-12T15:43:07.873Z,1012.047
2022-10-12T16:03:08.784Z,1012.003
2022-10-12T16:23:07.617Z,1012.026
2022-10-12T16:43:07.673Z,1011.922
2022-10-12T17:03:08.570Z,1011.961
2022-10-12T17:23:07.320Z,1011.93
2022-10-12T17:43:07.317Z,1012.181
2022-10-12T18:03:08.291Z,1012.184
2022-10-12T18:23:07.123Z,1012.174
2022-10-12T18:43:08.168Z,1012.389
2022-10-12T19:03:08.996Z,1012.264
2022-10-12T19:23:07.996Z,1012.215
2022-10-12T19:43:07.120Z,1011.935
2022-10-12T20:03:09.047Z,1011.919
2022-10-12T20:23:07.899Z,1011.971
2022-10-12T20:43:07.959Z,1011.951
2022-10-12T21:03:08.864Z,1011.751
2022-10-12T21:23:07.662Z,1011.717
2022-10-12T21:43:07.695Z,1011.792
2022-10-12T22:03:08.778Z,1011.647
2022-10-12T22:23:07.515Z,1011.624
2022-10-12T22:43:07.257Z,1011.458
2022-10-12T23:03:07.973Z,1011.482
2022-10-12T23:23:07.781Z,1011.217
2022-10-12T23:43:07.706Z,1011.155
